Time;durP1;ratioP1;P1;durP2;ratioP2;P2;SDS_P1;SDS_P2;PMS_P1;PMS_P2;Temp;Humidity;BMP_temperature;BMP_pressure;BME280_temperature;BME280_humidity;BME280_pressure;Samples;Min_cycle;Max_cycle;Signal;HPM_P1;HPM_P2
2023/01/26 00:00:58;;;;;;;39.88;23.90;;;1.40;99.90;;;;;;5016948;28;20026;-70
2023/01/26 00:03:25;;;;;;;41.00;27.45;;;1.40;99.90;;;;;;5016067;28;20037;-70
2023/01/26 00:05:50;;;;;;;43.17;25.10;;;1.40;99.90;;;;;;5015627;28;20096;-70
2023/01/26 00:08:16;;;;;;;43.22;26.33;;;1.40;99.90;;;;;;5011196;28;20018;-70
2023/01/26 00:10:49;;;;;;;42.50;25.85;;;1.40;99.90;;;;;;5017867;28;20029;-70
2023/01/26 00:13:21;;;;;;;38.03;25.15;;;1.40;99.90;;;;;;5007365;28;20023;-70
2023/01/26 00:15:47;;;;;;;45.13;28.52;;;1.40;99.90;;;;;;5011173;28;20026;-70
2023/01/26 00:18:13;;;;;;;38.13;25.58;;;1.40;99.90;;;;;;5012769;28;20448;-71
2023/01/26 00:20:39;;;;;;;39.60;27.50;;;1.40;99.90;;;;;;5017521;28;20083;-70
2023/01/26 00:23:05;;;;;;;40.95;24.42;;;1.40;99.90;;;;;;5013710;28;20022;-71
2023/01/26 00:25:30;;;;;;;42.40;26.90;;;1.40;99.90;;;;;;5017105;28;20108;-71
2023/01/26 00:27:56;;;;;;;38.10;25.40;;;1.40;99.90;;;;;;5012023;28;20022;-70
2023/01/26 00:30:22;;;;;;;45.35;27.90;;;1.40;99.90;;;;;;5018463;28;20541;-70
2023/01/26 00:32:48;;;;;;;44.33;26.80;;;1.40;99.90;;;;;;5011761;28;20166;-70
2023/01/26 00:35:14;;;;;;;36.72;23.27;;;1.30;99.90;;;;;;5018180;28;20049;-70
2023/01/26 00:37:41;;;;;;;38.95;23.88;;;1.30;99.90;;;;;;5011597;28;20033;-70
2023/01/26 00:40:07;;;;;;;43.90;24.85;;;1.30;99.90;;;;;;5013299;28;20029;-70
2023/01/26 00:42:33;;;;;;;38.65;25.88;;;1.30;99.90;;;;;;5011359;28;20026;-71
2023/01/26 00:44:58;;;;;;;47.20;25.30;;;1.20;99.90;;;;;;5018112;28;20493;-70
2023/01/26 00:47:24;;;;;;;41.25;25.75;;;1.20;99.90;;;;;;5013880;28;20049;-70
2023/01/26 00:49:50;;;;;;;40.05;25.35;;;1.20;99.90;;;;;;5015390;28;20037;-71
2023/01/26 00:52:15;;;;;;;35.38;23.13;;;1.20;99.90;;;;;;5012524;28;20073;-70
2023/01/26 00:54:41;;;;;;;44.60;24.40;;;1.20;99.90;;;;;;5016566;28;20030;-70
2023/01/26 00:57:07;;;;;;;41.60;26.10;;;1.20;99.90;;;;;;5013826;28;20030;-70
2023/01/26 00:59:32;;;;;;;42.35;26.17;;;1.20;99.90;;;;;;5016472;28;20502;-70
2023/01/26 01:02:01;;;;;;;39.17;24.23;;;1.20;99.90;;;;;;5015973;28;20498;-70
2023/01/26 01:04:30;;;;;;;49.72;27.50;;;1.20;99.90;;;;;;5016939;28;20118;-70
2023/01/26 01:06:57;;;;;;;40.42;24.02;;;1.20;99.90;;;;;;5013607;28;20026;-70
2023/01/26 01:09:23;;;;;;;43.58;25.80;;;1.30;99.90;;;;;;5017630;28;20088;-71
2023/01/26 01:11:49;;;;;;;42.25;24.80;;;1.30;99.90;;;;;;5013926;28;20018;-70
2023/01/26 01:14:15;;;;;;;41.47;25.85;;;1.20;99.90;;;;;;5011751;28;20110;-70
2023/01/26 01:16:41;;;;;;;42.97;27.25;;;1.30;99.90;;;;;;5011368;28;20041;-70
2023/01/26 01:19:07;;;;;;;36.90;24.00;;;1.30;99.90;;;;;;5006196;28;20487;-70
2023/01/26 01:21:33;;;;;;;39.92;25.63;;;1.30;99.90;;;;;;5010218;28;20049;-70
2023/01/26 01:23:59;;;;;;;44.65;25.55;;;1.30;99.90;;;;;;5006991;28;20023;-70
2023/01/26 01:26:26;;;;;;;47.53;26.05;;;1.30;99.90;;;;;;5012677;28;20030;-71
2023/01/26 01:28:55;;;;;;;40.15;24.13;;;1.30;99.90;;;;;;5011873;28;20021;-70
2023/01/26 01:31:21;;;;;;;42.25;25.58;;;1.30;99.90;;;;;;5013510;28;20030;-70
2023/01/26 01:33:46;;;;;;;40.67;27.15;;;1.30;99.90;;;;;;5013127;28;20678;-71
2023/01/26 01:36:15;;;;;;;39.50;26.35;;;1.40;99.90;;;;;;5014651;28;20026;-70
2023/01/26 01:38:44;;;;;;;41.90;25.95;;;1.30;99.90;;;;;;5015407;28;20445;-70
2023/01/26 01:41:10;;;;;;;42.15;25.88;;;1.40;99.90;;;;;;5014714;28;20037;-70
2023/01/26 01:43:36;;;;;;;35.40;23.90;;;1.40;99.90;;;;;;5016389;28;20105;-70
2023/01/26 01:46:26;;;;;;;39.08;24.08;;;1.40;99.90;;;;;;5013727;28;20027;-70
2023/01/26 01:49:04;;;;;;;38.70;25.30;;;1.40;99.90;;;;;;5003022;28;20038;-71
2023/01/26 01:52:05;;;;;;;39.50;24.70;;;1.50;99.90;;;;;;5009469;28;20062;-70
2023/01/26 01:55:09;;;;;;;40.75;25.40;;;1.50;99.90;;;;;;5009195;28;20033;-71
2023/01/26 01:57:50;;;;;;;32.88;22.27;;;1.50;99.90;;;;;;5007498;28;20042;-71
2023/01/26 02:00:22;;;;;;;36.25;21.92;;;1.50;99.90;;;;;;5015607;28;20512;-71
2023/01/26 02:05:56;;;;;;;37.25;23.52;;;1.50;99.90;;;;;;5011256;28;20045;-70
2023/01/26 02:08:26;;;;;;;;;;;1.50;99.90;;;;;;5016123;28;20469;-71
2023/01/26 02:10:55;;;;;;;34.53;22.67;;;1.50;99.90;;;;;;5013541;28;19906;-70
2023/01/26 02:13:22;;;;;;;34.13;21.23;;;1.50;99.90;;;;;;5012752;28;20025;-70
2023/01/26 02:15:49;;;;;;;33.55;21.55;;;1.60;99.90;;;;;;5015349;28;20026;-70
2023/01/26 02:18:16;;;;;;;35.70;21.75;;;1.60;99.90;;;;;;5014884;28;20026;-70
2023/01/26 02:21:07;;;;;;;31.83;21.33;;;1.50;99.90;;;;;;5014419;28;20443;-70
2023/01/26 02:24:09;;;;;;;34.85;21.73;;;1.60;99.90;;;;;;5012525;28;20029;-70
2023/01/26 02:26:36;;;;;;;31.50;21.25;;;1.60;99.90;;;;;;5011484;28;20027;-70
2023/01/26 02:29:05;;;;;;;32.40;21.27;;;1.60;99.90;;;;;;5007001;28;20022;-71
2023/01/26 02:31:31;;;;;;;30.20;20.17;;;1.60;99.90;;;;;;5013431;28;20494;-70
2023/01/26 02:33:56;;;;;;;29.33;20.48;;;1.60;99.90;;;;;;5011808;28;20022;-70
2023/01/26 02:36:28;;;;;;;28.83;19.80;;;1.60;99.90;;;;;;5014324;28;20044;-71
2023/01/26 02:39:33;;;;;;;32.95;21.60;;;1.60;99.90;;;;;;5015316;28;20033;-70
2023/01/26 02:44:43;;;;;;;33.40;21.73;;;1.70;99.90;;;;;;5014634;28;20032;-70
2023/01/26 02:47:14;;;;;;;36.85;19.75;;;1.70;99.90;;;;;;5013820;28;20036;-71
2023/01/26 02:49:46;;;;;;;31.02;20.80;;;1.70;99.90;;;;;;5015868;28;20080;-70
2023/01/26 02:52:13;;;;;;;32.50;21.65;;;1.70;99.90;;;;;;5010077;28;20050;-70
2023/01/26 02:57:23;;;;;;;30.98;20.25;;;1.70;99.90;;;;;;5010485;28;20029;-70
2023/01/26 02:59:49;;;;;;;34.70;20.92;;;1.70;99.90;;;;;;5015239;28;20112;-71
2023/01/26 03:02:15;;;;;;;31.08;19.17;;;1.70;99.90;;;;;;5012635;28;20030;-71
2023/01/26 03:04:42;;;;;;;34.15;22.58;;;1.70;99.90;;;;;;5014788;28;20574;-71
2023/01/26 03:07:07;;;;;;;29.52;21.27;;;1.70;99.90;;;;;;5014930;28;20482;-70
2023/01/26 03:09:33;;;;;;;33.97;20.75;;;1.70;99.90;;;;;;5015451;28;20045;-70
2023/01/26 03:11:59;;;;;;;29.23;21.48;;;1.70;99.90;;;;;;5011038;28;20027;-70
2023/01/26 03:14:24;;;;;;;28.60;20.33;;;1.70;99.90;;;;;;5011872;28;20046;-71
2023/01/26 03:16:50;;;;;;;23.17;16.00;;;1.70;99.90;;;;;;5011529;28;20030;-70
2023/01/26 03:27:42;;;;;;;32.10;19.42;;;1.70;99.90;;;;;;5011197;28;20045;-70
2023/01/26 03:30:08;;;;;;;25.40;17.75;;;1.70;99.90;;;;;;5011036;28;20019;-71
2023/01/26 03:32:34;;;;;;;30.38;20.17;;;1.70;99.90;;;;;;5011601;28;20030;-70
2023/01/26 03:35:00;;;;;;;30.02;20.88;;;1.70;99.90;;;;;;5012247;28;20026;-71
2023/01/26 03:37:25;;;;;;;29.88;21.77;;;1.70;99.90;;;;;;5012703;28;20029;-70
2023/01/26 03:56:26;;;;;;;26.52;20.35;;;1.70;99.90;;;;;;5015603;28;20040;-70
2023/01/26 03:58:54;;;;;;;27.38;19.38;;;1.70;99.90;;;;;;5008456;28;20026;-70
2023/01/26 04:01:26;;;;;;;34.00;22.27;;;1.70;99.90;;;;;;5014841;28;20014;-70
2023/01/26 04:09:25;;;;;;;30.70;21.02;;;1.70;99.90;;;;;;5013381;28;20049;-70
2023/01/26 04:11:51;;;;;;;29.83;20.23;;;1.70;99.90;;;;;;5001307;28;20114;-71
2023/01/26 04:22:42;;;;;;;29.75;19.48;;;1.70;99.90;;;;;;5009679;28;20044;-71
2023/01/26 04:25:09;;;;;;;29.23;19.65;;;1.70;99.90;;;;;;5009051;28;20018;-70
2023/01/26 04:27:35;;;;;;;33.28;22.35;;;1.70;99.90;;;;;;5015210;28;20065;-70
2023/01/26 04:30:02;;;;;;;29.98;19.30;;;1.70;99.90;;;;;;5009753;28;20018;-70
2023/01/26 04:32:28;;;;;;;28.40;19.15;;;1.70;99.90;;;;;;5011828;28;20053;-71
2023/01/26 04:34:54;;;;;;;29.67;19.58;;;1.70;99.90;;;;;;5010698;28;20395;-71
2023/01/26 04:37:20;;;;;;;31.13;20.92;;;1.70;99.90;;;;;;5016005;28;20033;-70
2023/01/26 04:39:46;;;;;;;23.60;17.23;;;1.70;99.90;;;;;;5011592;28;20445;-70
2023/01/26 04:42:11;;;;;;;29.73;20.33;;;1.70;99.90;;;;;;5016048;28;20103;-70
2023/01/26 04:44:37;;;;;;;26.92;17.20;;;1.70;99.90;;;;;;5016815;28;20026;-71
2023/01/26 04:47:03;;;;;;;21.77;15.48;;;1.70;99.90;;;;;;5011945;28;20082;-70
2023/01/26 04:49:28;;;;;;;27.85;19.10;;;1.70;99.90;;;;;;5013940;28;20014;-70
2023/01/26 04:51:54;;;;;;;28.23;18.73;;;1.70;99.90;;;;;;5011040;28;20096;-70
2023/01/26 04:54:20;;;;;;;21.63;17.30;;;1.70;99.90;;;;;;5009882;28;20077;-71
2023/01/26 04:56:46;;;;;;;30.83;19.20;;;1.70;99.90;;;;;;5015489;28;20033;-70
2023/01/26 04:59:13;;;;;;;32.50;20.65;;;1.70;99.90;;;;;;5008672;28;20022;-71
2023/01/26 05:01:39;;;;;;;30.63;21.17;;;1.80;99.90;;;;;;5014563;28;20029;-70
2023/01/26 05:04:06;;;;;;;26.10;19.00;;;1.80;99.90;;;;;;5007788;28;20456;-71
2023/01/26 05:06:32;;;;;;;31.35;19.80;;;1.80;99.90;;;;;;5015359;28;20060;-70
2023/01/26 05:08:58;;;;;;;27.52;19.63;;;1.80;99.90;;;;;;5016482;28;20026;-71
2023/01/26 05:11:24;;;;;;;32.83;19.02;;;1.80;99.90;;;;;;5013543;28;20064;-70
2023/01/26 05:13:50;;;;;;;26.45;18.25;;;1.80;99.90;;;;;;5005107;28;20026;-70
2023/01/26 05:16:16;;;;;;;26.08;18.30;;;1.80;99.90;;;;;;5012403;28;20762;-70
2023/01/26 05:18:42;;;;;;;30.33;18.58;;;1.80;99.90;;;;;;5000555;28;20030;-70
2023/01/26 05:21:09;;;;;;;29.15;17.45;;;1.80;99.90;;;;;;5011142;28;20030;-70
2023/01/26 05:23:35;;;;;;;28.83;17.65;;;1.80;99.90;;;;;;5006470;28;20450;-71
2023/01/26 05:26:02;;;;;;;26.75;18.45;;;1.90;99.90;;;;;;5011425;28;20026;-71
2023/01/26 05:28:28;;;;;;;27.08;18.35;;;1.80;99.90;;;;;;5006368;28;20023;-71
2023/01/26 05:30:53;;;;;;;29.40;19.02;;;1.80;99.90;;;;;;5012328;28;20076;-71
2023/01/26 05:33:20;;;;;;;24.92;17.27;;;1.80;99.90;;;;;;5008391;28;20038;-71
2023/01/26 05:35:48;;;;;;;27.08;18.65;;;1.70;99.90;;;;;;5011885;28;20061;-71
2023/01/26 05:38:15;;;;;;;29.90;18.83;;;1.80;99.90;;;;;;5008137;28;20049;-71
2023/01/26 05:40:40;;;;;;;26.95;19.40;;;1.70;99.90;;;;;;5013939;28;20026;-71
2023/01/26 05:43:07;;;;;;;27.23;18.40;;;1.80;99.90;;;;;;5008801;28;20022;-71
2023/01/26 05:45:33;;;;;;;24.83;17.17;;;1.80;99.90;;;;;;5014632;28;20437;-71
2023/01/26 05:47:59;;;;;;;29.77;18.85;;;1.80;99.90;;;;;;5009417;28;20437;-71
2023/01/26 05:50:25;;;;;;;40.60;23.55;;;1.80;99.90;;;;;;5014574;28;20452;-71
2023/01/26 05:52:51;;;;;;;22.85;17.42;;;1.80;99.90;;;;;;5002541;28;20078;-71
2023/01/26 05:55:17;;;;;;;24.92;16.00;;;1.80;99.90;;;;;;5014449;28;20081;-70
2023/01/26 05:57:43;;;;;;;27.65;17.42;;;1.70;99.90;;;;;;5004776;28;20494;-70
2023/01/26 06:00:11;;;;;;;21.17;16.63;;;1.80;99.90;;;;;;5014155;28;20383;-71
2023/01/26 06:02:36;;;;;;;31.08;18.58;;;1.70;99.90;;;;;;5013331;28;20029;-70
2023/01/26 06:05:03;;;;;;;21.48;16.15;;;1.70;99.90;;;;;;5015882;28;20074;-70
2023/01/26 06:07:28;;;;;;;22.65;15.20;;;1.80;99.90;;;;;;5007601;28;20487;-70
2023/01/26 06:09:54;;;;;;;26.45;15.02;;;1.70;99.90;;;;;;5014986;28;20032;-70
2023/01/26 06:12:20;;;;;;;28.65;17.40;;;1.70;99.90;;;;;;5008925;28;20038;-70
2023/01/26 06:14:46;;;;;;;24.38;16.13;;;1.70;99.90;;;;;;5004975;28;20477;-70
2023/01/26 06:17:14;;;;;;;25.70;16.88;;;1.70;99.90;;;;;;5015525;28;20096;-71
2023/01/26 06:19:40;;;;;;;20.55;13.43;;;1.70;99.90;;;;;;5018514;28;20022;-70
2023/01/26 06:22:10;;;;;;;24.90;15.50;;;1.70;99.90;;;;;;5018432;28;20018;-70
2023/01/26 06:24:36;;;;;;;22.70;17.35;;;1.70;99.90;;;;;;5011203;28;20458;-70
2023/01/26 06:27:02;;;;;;;26.17;15.75;;;1.70;99.90;;;;;;5011638;28;20054;-70
2023/01/26 06:29:28;;;;;;;34.53;19.85;;;1.70;99.90;;;;;;5010905;28;20401;-70
2023/01/26 06:31:54;;;;;;;24.42;15.63;;;1.70;99.90;;;;;;5017383;28;20076;-71
2023/01/26 06:34:20;;;;;;;24.75;16.52;;;1.70;99.90;;;;;;5015108;28;20029;-70
2023/01/26 06:36:46;;;;;;;24.10;15.40;;;1.70;99.90;;;;;;5015197;28;20070;-70
2023/01/26 06:39:12;;;;;;;26.10;15.38;;;1.70;99.90;;;;;;5018015;28;20022;-70
2023/01/26 06:41:39;;;;;;;26.52;16.42;;;1.70;99.90;;;;;;5016706;28;20188;-70
2023/01/26 06:44:05;;;;;;;77.78;63.10;;;1.70;99.90;;;;;;5019007;28;20049;-70
2023/01/26 06:46:30;;;;;;;27.50;16.15;;;1.70;99.90;;;;;;5018013;28;20059;-71
2023/01/26 06:48:56;;;;;;;22.73;15.23;;;1.70;99.90;;;;;;5019731;28;20022;-71
2023/01/26 06:51:27;;;;;;;24.67;16.25;;;1.70;99.90;;;;;;5016304;28;20524;-71
2023/01/26 06:53:56;;;;;;;20.25;14.68;;;1.60;99.90;;;;;;5016564;28;20109;-71
2023/01/26 06:56:22;;;;;;;22.98;13.65;;;1.60;99.90;;;;;;5014592;28;20096;-71
2023/01/26 06:58:49;;;;;;;20.02;13.70;;;1.60;99.90;;;;;;5004737;28;20026;-70
2023/01/26 07:01:24;;;;;;;17.27;13.25;;;1.50;99.90;;;;;;5008860;28;20513;-71
2023/01/26 07:03:52;;;;;;;19.58;12.30;;;1.50;99.90;;;;;;5008095;28;20041;-71
2023/01/26 07:06:17;;;;;;;20.25;13.40;;;1.50;99.90;;;;;;5017612;28;20109;-71
2023/01/26 07:08:43;;;;;;;22.65;15.25;;;1.50;99.90;;;;;;5010392;28;20054;-71
2023/01/26 07:11:11;;;;;;;22.42;15.07;;;1.50;99.90;;;;;;5016412;28;20032;-70
2023/01/26 07:13:37;;;;;;;25.08;15.30;;;1.60;99.90;;;;;;5010718;28;20057;-70
2023/01/26 07:16:10;;;;;;;22.65;14.93;;;1.60;99.90;;;;;;5017230;28;20512;-71
2023/01/26 07:18:36;;;;;;;24.60;15.82;;;1.60;99.90;;;;;;5012382;28;20107;-70
2023/01/26 07:21:08;;;;;;;20.60;15.10;;;1.60;99.90;;;;;;5016293;28;20071;-70
2023/01/26 07:23:34;;;;;;;25.33;16.13;;;1.60;99.90;;;;;;5005847;28;20022;-71
2023/01/26 07:25:59;;;;;;;23.27;16.45;;;1.60;99.90;;;;;;5015069;28;20041;-70
2023/01/26 07:28:26;;;;;;;29.27;17.05;;;1.60;99.90;;;;;;5010046;28;20042;-70
2023/01/26 07:30:55;;;;;;;25.92;15.93;;;1.60;99.90;;;;;;5011369;28;20034;-70
2023/01/26 07:33:21;;;;;;;28.73;17.58;;;1.60;99.90;;;;;;5002961;28;20022;-71
2023/01/26 07:35:47;;;;;;;24.60;16.15;;;1.60;99.90;;;;;;5001645;28;20186;-70
2023/01/26 07:38:12;;;;;;;26.75;16.02;;;1.70;99.90;;;;;;5001933;28;20387;-70
2023/01/26 07:40:38;;;;;;;28.35;16.75;;;1.70;99.90;;;;;;5006506;28;20133;-70
2023/01/26 07:43:04;;;;;;;27.70;16.27;;;1.70;99.90;;;;;;5011429;28;20021;-70
2023/01/26 07:45:29;;;;;;;30.75;19.33;;;1.70;99.90;;;;;;5013513;28;20061;-70
2023/01/26 07:47:56;;;;;;;29.25;20.65;;;1.70;99.90;;;;;;5012167;28;20021;-70
2023/01/26 07:50:24;;;;;;;35.85;20.58;;;1.70;99.90;;;;;;5018253;28;20077;-70
2023/01/26 07:52:51;;;;;;;28.02;16.88;;;1.70;99.90;;;;;;5012899;28;20042;-70
2023/01/26 07:55:19;;;;;;;34.17;17.63;;;1.70;99.90;;;;;;5017648;28;20018;-70
2023/01/26 07:57:47;;;;;;;35.35;18.30;;;1.80;99.90;;;;;;5014353;28;20072;-70
2023/01/26 08:00:14;;;;;;;27.92;18.27;;;1.80;99.90;;;;;;5015404;28;20026;-70
2023/01/26 08:02:40;;;;;;;28.48;16.90;;;1.80;99.90;;;;;;5015884;28;20494;-70
2023/01/26 08:05:06;;;;;;;31.30;19.35;;;1.80;99.90;;;;;;5016385;28;20427;-70
2023/01/26 08:07:32;;;;;;;34.35;19.35;;;1.80;99.90;;;;;;5015493;28;20096;-70
2023/01/26 08:09:58;;;;;;;30.35;17.70;;;1.80;99.90;;;;;;5017682;28;20034;-70
2023/01/26 08:12:24;;;;;;;24.00;15.75;;;1.80;99.90;;;;;;5015488;28;20452;-70
2023/01/26 08:14:50;;;;;;;16.75;11.02;;;1.80;99.90;;;;;;5015614;28;20299;-69
2023/01/26 08:17:17;;;;;;;19.15;12.07;;;1.70;99.90;;;;;;5008266;28;20046;-71
2023/01/26 08:19:44;;;;;;;18.48;12.52;;;1.70;99.90;;;;;;5015298;28;20026;-70
2023/01/26 08:22:09;;;;;;;19.20;13.30;;;1.70;99.90;;;;;;5015636;28;20065;-70
2023/01/26 08:24:35;;;;;;;16.98;13.45;;;1.70;99.90;;;;;;5016844;28;20021;-70
2023/01/26 08:27:01;;;;;;;19.90;14.00;;;1.70;99.90;;;;;;5014205;28;20486;-70
2023/01/26 08:29:26;;;;;;;21.67;14.18;;;1.70;99.90;;;;;;5016209;28;20030;-70
2023/01/26 08:31:52;;;;;;;23.15;13.70;;;1.70;99.90;;;;;;5015436;28;20037;-70
2023/01/26 08:34:20;;;;;;;21.10;12.73;;;1.70;99.90;;;;;;5017070;28;20014;-71
2023/01/26 08:36:46;;;;;;;20.08;14.90;;;1.70;99.90;;;;;;5013576;28;20076;-70
2023/01/26 08:39:12;;;;;;;19.63;14.23;;;1.70;99.90;;;;;;5015434;28;20029;-70
2023/01/26 08:41:38;;;;;;;23.05;15.88;;;1.70;99.90;;;;;;5010662;28;20038;-70
2023/01/26 08:44:05;;;;;;;20.88;14.00;;;1.70;99.90;;;;;;5017401;28;20485;-70
2023/01/26 08:46:30;;;;;;;21.02;14.23;;;1.80;99.90;;;;;;5014284;28;20029;-70
2023/01/26 08:48:56;;;;;;;20.75;14.65;;;1.80;99.90;;;;;;5016947;28;20391;-70
2023/01/26 08:51:22;;;;;;;23.23;15.27;;;1.80;99.90;;;;;;5014688;28;20105;-70
2023/01/26 08:53:47;;;;;;;24.33;15.45;;;1.80;99.90;;;;;;5016906;28;20548;-71
2023/01/26 08:56:13;;;;;;;24.45;14.27;;;1.80;99.90;;;;;;5014138;28;20065;-70
2023/01/26 08:58:39;;;;;;;24.98;15.07;;;1.80;99.90;;;;;;5015089;28;20029;-70
2023/01/26 09:01:07;;;;;;;25.17;15.90;;;1.80;99.90;;;;;;5015029;28;20038;-70
2023/01/26 09:03:33;;;;;;;27.25;15.43;;;1.80;99.90;;;;;;5015396;28;20554;-70
2023/01/26 09:06:00;;;;;;;29.77;17.42;;;1.80;99.90;;;;;;5013768;28;20153;-70
2023/01/26 09:08:26;;;;;;;29.35;19.08;;;1.80;99.90;;;;;;5015648;28;20035;-70
2023/01/26 09:10:51;;;;;;;31.08;18.05;;;1.80;99.90;;;;;;5015368;28;20034;-70
2023/01/26 09:13:17;;;;;;;31.20;19.70;;;1.90;99.90;;;;;;5014911;28;20060;-70
2023/01/26 09:15:43;;;;;;;25.90;17.42;;;1.90;99.90;;;;;;5015524;28;20034;-70
2023/01/26 09:18:09;;;;;;;32.95;18.30;;;1.90;99.90;;;;;;5014406;28;20018;-70
2023/01/26 09:20:37;;;;;;;21.73;16.15;;;1.90;99.90;;;;;;5016385;28;20029;-70
2023/01/26 09:23:03;;;;;;;30.65;19.42;;;2.00;99.90;;;;;;5013845;28;20425;-70
2023/01/26 09:25:29;;;;;;;29.77;18.55;;;2.00;99.90;;;;;;5015721;28;20029;-70
2023/01/26 09:27:54;;;;;;;27.35;16.20;;;2.10;99.90;;;;;;5014027;28;20018;-71
2023/01/26 09:30:20;;;;;;;28.45;19.63;;;2.10;99.90;;;;;;5016365;28;20069;-70
2023/01/26 09:32:46;;;;;;;29.48;17.92;;;2.10;99.90;;;;;;5010327;28;20410;-70
2023/01/26 09:35:12;;;;;;;32.17;19.13;;;2.20;99.90;;;;;;5011751;28;20038;-70
2023/01/26 09:37:38;;;;;;;33.20;19.00;;;2.20;99.90;;;;;;5013725;28;20026;-70
2023/01/26 09:40:05;;;;;;;26.25;19.55;;;2.20;99.90;;;;;;5013419;28;20033;-70
2023/01/26 09:42:48;;;;;;;29.90;18.08;;;2.30;99.90;;;;;;5012259;28;20084;-70
2023/01/26 09:45:19;;;;;;;26.23;18.08;;;2.30;99.90;;;;;;5004804;28;20034;-70
2023/01/26 09:47:54;;;;;;;23.60;17.10;;;2.40;99.90;;;;;;5009219;28;20430;-70
2023/01/26 09:50:26;;;;;;;25.42;18.05;;;2.40;99.90;;;;;;5004391;28;20034;-70
2023/01/26 09:52:55;;;;;;;29.10;20.08;;;2.40;99.90;;;;;;5012279;28;20084;-70
2023/01/26 09:55:23;;;;;;;29.40;19.40;;;2.40;99.90;;;;;;5009947;28;20054;-70
2023/01/26 09:58:14;;;;;;;22.15;16.98;;;2.40;99.90;;;;;;5010510;28;20281;-69
2023/01/26 10:00:47;;;;;;;27.67;18.42;;;2.50;99.90;;;;;;5000485;28;20605;-70
2023/01/26 10:03:39;;;;;;;24.35;17.30;;;2.60;99.90;;;;;;5006277;28;20018;-70
2023/01/26 10:06:30;;;;;;;24.55;17.42;;;2.70;99.90;;;;;;5006670;28;20034;-70
2023/01/26 10:09:15;;;;;;;24.50;18.67;;;2.70;99.90;;;;;;5014291;28;20441;-70
2023/01/26 10:11:53;;;;;;;23.48;16.88;;;2.80;99.90;;;;;;5014001;28;20064;-70
2023/01/26 10:14:29;;;;;;;23.63;17.30;;;2.90;99.90;;;;;;5012288;28;20022;-70
2023/01/26 10:16:56;;;;;;;24.50;18.40;;;2.90;99.90;;;;;;5012794;28;20076;-70
2023/01/26 10:20:03;;;;;;;22.50;16.90;;;2.90;99.90;;;;;;5015841;28;20033;-71
2023/01/26 10:22:47;;;;;;;22.88;16.50;;;3.00;99.90;;;;;;5013546;28;20045;-70
2023/01/26 10:25:34;;;;;;;23.45;15.60;;;3.10;99.90;;;;;;5014144;28;20026;-71
2023/01/26 10:28:16;;;;;;;24.80;17.02;;;3.10;99.90;;;;;;5012848;28;20037;-70
2023/01/26 10:30:43;;;;;;;23.50;17.42;;;3.00;99.90;;;;;;5011105;28;20029;-70
2023/01/26 10:33:26;;;;;;;23.92;16.92;;;3.10;99.90;;;;;;5011599;28;20022;-70
2023/01/26 10:35:52;;;;;;;24.80;15.55;;;3.00;99.90;;;;;;5010793;28;20058;-70
2023/01/26 10:38:36;;;;;;;20.95;15.40;;;3.00;99.90;;;;;;5014694;28;20394;-71
2023/01/26 10:41:12;;;;;;;21.88;14.82;;;3.00;99.90;;;;;;5012714;28;20030;-70
2023/01/26 10:43:41;;;;;;;18.30;14.07;;;3.10;99.90;;;;;;5015253;28;20022;-70
2023/01/26 10:46:39;;;;;;;21.05;15.82;;;3.10;99.90;;;;;;5012126;28;20027;-70
2023/01/26 10:49:08;;;;;;;21.65;14.82;;;3.20;99.90;;;;;;5015365;28;20018;-70
2023/01/26 10:51:36;;;;;;;21.85;15.85;;;3.10;99.90;;;;;;5012813;28;20132;-71
2023/01/26 10:54:24;;;;;;;21.83;16.20;;;3.10;99.90;;;;;;5013888;28;20033;-70
2023/01/26 10:56:56;;;;;;;18.83;15.13;;;3.20;99.90;;;;;;5009792;28;20037;-70
2023/01/26 10:59:30;;;;;;;19.20;15.30;;;3.10;99.90;;;;;;5014015;28;20018;-70
2023/01/26 11:02:10;;;;;;;21.75;15.38;;;3.20;99.90;;;;;;5015895;28;20040;-70
2023/01/26 11:04:37;;;;;;;18.02;14.32;;;3.20;99.90;;;;;;5021904;28;20026;-71
2023/01/26 11:07:26;;;;;;;24.80;15.20;;;3.20;99.90;;;;;;5015596;28;20030;-70
2023/01/26 11:09:53;;;;;;;22.23;15.45;;;3.30;99.90;;;;;;5017477;28;20022;-70
2023/01/26 11:12:20;;;;;;;21.27;13.82;;;3.30;99.90;;;;;;5017519;28;20508;-70
2023/01/26 11:15:03;;;;;;;21.17;15.35;;;3.20;99.90;;;;;;5018209;28;20022;-70
2023/01/26 11:17:47;;;;;;;22.58;17.70;;;3.20;99.90;;;;;;5014893;28;20030;-70
2023/01/26 11:20:44;;;;;;;22.90;17.30;;;3.10;99.90;;;;;;5018444;28;20482;-70
2023/01/26 11:23:40;;;;;;;22.63;15.95;;;3.10;99.90;;;;;;5016479;28;20034;-71
2023/01/26 11:26:22;;;;;;;22.35;15.15;;;3.10;99.90;;;;;;5014326;28;20038;-70
2023/01/26 11:28:58;;;;;;;20.13;16.20;;;3.00;99.90;;;;;;5014422;28;20037;-70
2023/01/26 11:31:33;;;;;;;20.67;15.52;;;3.10;99.90;;;;;;5016693;28;20030;-70
2023/01/26 11:34:04;;;;;;;20.60;15.07;;;3.10;99.90;;;;;;5016990;28;20057;-70
2023/01/26 11:36:56;;;;;;;18.40;14.88;;;3.10;99.90;;;;;;5015500;28;20113;-70
2023/01/26 11:39:51;;;;;;;18.52;14.90;;;3.00;99.90;;;;;;5016069;28;20041;-70
2023/01/26 11:42:55;;;;;;;17.83;12.73;;;3.00;99.90;;;;;;5012159;28;20155;-70
2023/01/26 11:46:00;;;;;;;19.35;14.63;;;3.00;99.90;;;;;;5014198;28;20022;-70
2023/01/26 11:48:46;;;;;;;15.77;13.13;;;2.90;99.90;;;;;;5031467;28;20030;-70
2023/01/26 11:51:15;;;;;;;14.98;12.80;;;2.90;99.90;;;;;;5015909;28;20042;-70
2023/01/26 11:53:45;;;;;;;14.57;12.80;;;3.00;99.90;;;;;;5016445;28;20053;-70
2023/01/26 11:56:51;;;;;;;20.05;14.32;;;3.10;99.90;;;;;;5014933;28;20064;-70
2023/01/26 11:59:27;;;;;;;17.52;13.32;;;3.40;99.90;;;;;;5016369;28;20401;-70
2023/01/26 12:02:23;;;;;;;18.00;13.00;;;3.60;99.90;;;;;;5015858;28;20025;-70
2023/01/26 12:04:51;;;;;;;16.23;11.38;;;3.80;99.90;;;;;;5014237;28;20380;-70
2023/01/26 12:07:53;;;;;;;16.75;12.68;;;3.90;99.90;;;;;;5008194;28;20109;-70
2023/01/26 12:10:34;;;;;;;15.23;10.98;;;4.10;99.90;;;;;;5014779;28;20026;-70
2023/01/26 12:13:29;;;;;;;14.57;11.23;;;4.20;99.90;;;;;;5015356;28;20061;-70
2023/01/26 12:16:00;;;;;;;15.77;10.43;;;4.20;99.90;;;;;;5014204;28;20161;-70
2023/01/26 12:18:26;;;;;;;;;;;4.20;99.90;;;;;;5013905;28;20022;-71
2023/01/26 12:21:02;;;;;;;10.18;7.53;;;4.20;99.90;;;;;;5016236;28;19909;-71
2023/01/26 12:23:37;;;;;;;14.93;10.82;;;4.30;99.90;;;;;;5015837;28;20057;-70
2023/01/26 12:26:11;;;;;;;15.05;10.30;;;4.30;99.90;;;;;;5014044;28;20028;-70
2023/01/26 12:28:59;;;;;;;13.10;10.60;;;4.30;99.90;;;;;;5015870;28;20109;-71
2023/01/26 12:31:42;;;;;;;15.07;10.85;;;4.20;99.90;;;;;;5012417;28;20560;-70
2023/01/26 12:34:12;;;;;;;16.05;11.45;;;4.10;99.90;;;;;;5012654;28;20129;-71
2023/01/26 12:37:20;;;;;;;13.20;11.45;;;4.10;99.90;;;;;;5014300;28;20026;-70
2023/01/26 12:40:06;;;;;;;16.15;11.77;;;4.10;99.90;;;;;;5014453;28;20037;-71
2023/01/26 12:43:07;;;;;;;11.07;9.50;;;4.10;99.90;;;;;;5012942;28;20014;-70
2023/01/26 12:45:40;;;;;;;16.95;11.25;;;4.00;99.90;;;;;;5013305;28;20049;-71
2023/01/26 12:48:05;;;;;;;12.63;11.02;;;4.00;99.90;;;;;;5012962;28;20026;-70
2023/01/26 12:50:39;;;;;;;12.52;9.27;;;4.00;99.90;;;;;;5015765;28;20033;-71
2023/01/26 12:53:44;;;;;;;15.50;11.00;;;4.00;99.90;;;;;;5012660;28;20101;-71
2023/01/26 12:56:13;;;;;;;11.32;9.40;;;4.00;99.90;;;;;;5009897;28;20117;-68
2023/01/26 12:58:45;;;;;;;15.23;11.38;;;3.90;99.90;;;;;;5015743;28;20030;-70
2023/01/26 13:01:17;;;;;;;17.08;12.05;;;3.90;99.90;;;;;;5014202;28;20019;-70
2023/01/26 13:03:50;;;;;;;15.45;11.32;;;3.90;99.90;;;;;;5012997;28;20054;-71
2023/01/26 13:06:20;;;;;;;14.23;10.85;;;3.90;99.90;;;;;;5012075;28;20029;-70
2023/01/26 13:09:16;;;;;;;16.05;12.55;;;3.90;99.90;;;;;;5013163;28;20026;-70
2023/01/26 13:11:57;;;;;;;15.48;12.05;;;3.90;99.90;;;;;;5014468;28;20049;-70
2023/01/26 13:14:57;;;;;;;16.23;11.38;;;3.90;99.90;;;;;;5015239;28;20064;-70
2023/01/26 13:17:24;;;;;;;14.70;12.18;;;3.90;99.90;;;;;;5011439;28;20100;-70
2023/01/26 13:19:52;;;;;;;15.05;10.45;;;4.10;99.90;;;;;;5017124;28;20021;-70
2023/01/26 13:22:18;;;;;;;14.18;11.43;;;4.20;99.90;;;;;;5010627;28;20029;-70
2023/01/26 13:24:47;;;;;;;13.38;10.52;;;4.30;99.90;;;;;;5015481;28;20486;-70
2023/01/26 13:27:33;;;;;;;19.02;13.65;;;4.30;99.90;;;;;;5012590;28;20030;-68
2023/01/26 13:29:59;;;;;;;12.70;10.15;;;4.30;99.90;;;;;;5014671;28;20097;-68
2023/01/26 13:32:25;;;;;;;12.45;11.15;;;4.10;99.90;;;;;;5014300;28;20126;-68
2023/01/26 13:34:56;;;;;;;12.75;10.40;;;3.90;99.90;;;;;;5010997;28;20505;-68
2023/01/26 13:37:52;;;;;;;13.60;10.95;;;3.90;99.90;;;;;;5010622;28;20072;-70
2023/01/26 13:40:21;;;;;;;12.63;10.20;;;3.90;99.90;;;;;;5012539;28;20105;-70
2023/01/26 13:43:06;;;;;;;14.65;11.23;;;3.90;99.90;;;;;;5008213;28;20057;-70
2023/01/26 13:45:42;;;;;;;10.85;8.68;;;4.00;99.90;;;;;;5014876;28;20030;-71